sensor_id;sensor_type;location;lat;lon;timestamp;pressure;altitude;pressure_sealevel;temperature;humidity
4814;BME280;15375;48.540;9.268;2023-08-06T00:02:23;96606.88;;;15.46;100.00
4814;BME280;15375;48.540;9.268;2023-08-06T00:04:48;96562.09;;;15.22;100.00
4814;BME280;15375;48.540;9.268;2023-08-06T00:07:14;96555.78;;;15.07;100.00
4814;BME280;15375;48.540;9.268;2023-08-06T00:09:39;96585.19;;;15.39;100.00
4814;BME280;15375;48.540;9.268;2023-08-06T00:12:05;96612.00;;;15.53;100.00
4814;BME280;15375;48.540;9.268;2023-08-06T00:14:30;96611.81;;;15.33;100.00
4814;BME280;15375;48.540;9.268;2023-08-06T00:16:55;96609.50;;;15.31;100.00
4814;BME280;15375;48.540;9.268;2023-08-06T00:19:21;96610.44;;;15.28;100.00
4814;BME280;15375;48.540;9.268;2023-08-06T00:21:46;96546.97;;;15.03;100.00
4814;BME280;15375;48.540;9.268;2023-08-06T00:24:12;96601.13;;;15.59;100.00
4814;BME280;15375;48.540;9.268;2023-08-06T00:26:37;96603.88;;;15.26;100.00
4814;BME280;15375;48.540;9.268;2023-08-06T00:29:03;96608.50;;;15.20;100.00
4814;BME280;15375;48.540;9.268;2023-08-06T00:31:28;96588.09;;;15.12;100.00
4814;BME280;15375;48.540;9.268;2023-08-06T00:33:53;96562.25;;;14.95;100.00
4814;BME280;15375;48.540;9.268;2023-08-06T00:36:19;96599.94;;;15.27;100.00
4814;BME280;15375;48.540;9.268;2023-08-06T00:38:44;96548.38;;;14.89;100.00
4814;BME280;15375;48.540;9.268;2023-08-06T00:41:10;96576.06;;;15.09;100.00
4814;BME280;15375;48.540;9.268;2023-08-06T00:43:35;96548.75;;;15.06;100.00
4814;BME280;15375;48.540;9.268;2023-08-06T00:46:00;96612.75;;;15.30;100.00
4814;BME280;15375;48.540;9.268;2023-08-06T00:48:26;96577.25;;;14.76;100.00
4814;BME280;15375;48.540;9.268;2023-08-06T00:50:52;96527.59;;;14.64;100.00
4814;BME280;15375;48.540;9.268;2023-08-06T00:53:18;96473.88;;;14.40;100.00
4814;BME280;15375;48.540;9.268;2023-08-06T00:55:44;96547.66;;;14.80;100.00
4814;BME280;15375;48.540;9.268;2023-08-06T00:58:10;96526.63;;;14.77;100.00
4814;BME280;15375;48.540;9.268;2023-08-06T01:00:36;96478.84;;;14.50;100.00
4814;BME280;15375;48.540;9.268;2023-08-06T01:03:01;96578.50;;;15.40;100.00
4814;BME280;15375;48.540;9.268;2023-08-06T01:05:27;96509.19;;;14.89;100.00
4814;BME280;15375;48.540;9.268;2023-08-06T01:08:00;96591.63;;;15.36;100.00
4814;BME280;15375;48.540;9.268;2023-08-06T01:13:15;96542.59;;;15.20;100.00
4814;BME280;15375;48.540;9.268;2023-08-06T01:15:53;96599.16;;;15.59;100.00
4814;BME280;15375;48.540;9.268;2023-08-06T01:18:20;96575.06;;;15.54;100.00
4814;BME280;15375;48.540;9.268;2023-08-06T01:20:46;96575.38;;;15.23;100.00
4814;BME280;15375;48.540;9.268;2023-08-06T01:23:11;96578.19;;;15.38;100.00
4814;BME280;15375;48.540;9.268;2023-08-06T01:25:56;96564.28;;;15.18;100.00
4814;BME280;15375;48.540;9.268;2023-08-06T01:31:13;96579.50;;;15.19;100.00
4814;BME280;15375;48.540;9.268;2023-08-06T01:33:43;96574.94;;;15.16;100.00
4814;BME280;15375;48.540;9.268;2023-08-06T01:36:10;96560.22;;;15.04;100.00
4814;BME280;15375;48.540;9.268;2023-08-06T01:38:36;96582.38;;;15.24;100.00
4814;BME280;15375;48.540;9.268;2023-08-06T01:41:01;96560.63;;;15.12;100.00
4814;BME280;15375;48.540;9.268;2023-08-06T01:43:27;96587.09;;;15.33;100.00
4814;BME280;15375;48.540;9.268;2023-08-06T01:45:52;96578.22;;;15.05;100.00
4814;BME280;15375;48.540;9.268;2023-08-06T01:48:17;96547.97;;;14.82;100.00
4814;BME280;15375;48.540;9.268;2023-08-06T01:50:43;96533.66;;;14.68;100.00
4814;BME280;15375;48.540;9.268;2023-08-06T01:53:08;96555.84;;;14.98;100.00
4814;BME280;15375;48.540;9.268;2023-08-06T01:55:33;96573.25;;;15.18;100.00
4814;BME280;15375;48.540;9.268;2023-08-06T01:57:59;96539.88;;;15.11;100.00
4814;BME280;15375;48.540;9.268;2023-08-06T02:00:24;96474.53;;;14.67;100.00
4814;BME280;15375;48.540;9.268;2023-08-06T02:02:50;96498.81;;;14.60;100.00
4814;BME280;15375;48.540;9.268;2023-08-06T02:05:15;96506.91;;;14.54;100.00
4814;BME280;15375;48.540;9.268;2023-08-06T02:07:41;96473.06;;;14.57;100.00
4814;BME280;15375;48.540;9.268;2023-08-06T02:10:07;96500.41;;;14.76;100.00
4814;BME280;15375;48.540;9.268;2023-08-06T02:12:32;96540.34;;;15.09;100.00
4814;BME280;15375;48.540;9.268;2023-08-06T02:14:58;96486.88;;;14.63;100.00
4814;BME280;15375;48.540;9.268;2023-08-06T02:17:23;96533.72;;;14.92;100.00
4814;BME280;15375;48.540;9.268;2023-08-06T02:19:49;96501.03;;;14.70;100.00
4814;BME280;15375;48.540;9.268;2023-08-06T02:22:14;96540.56;;;14.64;100.00
4814;BME280;15375;48.540;9.268;2023-08-06T02:24:39;96519.09;;;14.53;100.00
4814;BME280;15375;48.540;9.268;2023-08-06T02:27:05;96520.63;;;14.45;100.00
4814;BME280;15375;48.540;9.268;2023-08-06T02:29:30;96490.69;;;14.05;100.00
4814;BME280;15375;48.540;9.268;2023-08-06T02:31:56;96521.63;;;14.06;100.00
4814;BME280;15375;48.540;9.268;2023-08-06T02:34:21;96489.06;;;13.81;100.00
4814;BME280;15375;48.540;9.268;2023-08-06T02:36:46;96514.31;;;14.12;100.00
4814;BME280;15375;48.540;9.268;2023-08-06T02:39:12;96512.94;;;14.17;100.00
4814;BME280;15375;48.540;9.268;2023-08-06T02:41:37;96503.03;;;14.19;100.00
4814;BME280;15375;48.540;9.268;2023-08-06T02:44:03;96497.53;;;14.19;100.00
4814;BME280;15375;48.540;9.268;2023-08-06T02:46:28;96478.84;;;13.99;100.00
4814;BME280;15375;48.540;9.268;2023-08-06T02:48:54;96492.63;;;14.23;100.00
4814;BME280;15375;48.540;9.268;2023-08-06T02:51:19;96452.78;;;14.04;100.00
4814;BME280;15375;48.540;9.268;2023-08-06T02:53:45;96450.34;;;14.06;100.00
4814;BME280;15375;48.540;9.268;2023-08-06T02:56:10;96476.94;;;14.75;100.00
4814;BME280;15375;48.540;9.268;2023-08-06T02:58:35;96464.69;;;14.52;100.00
4814;BME280;15375;48.540;9.268;2023-08-06T03:01:05;96475.63;;;14.61;100.00
4814;BME280;15375;48.540;9.268;2023-08-06T03:03:32;96416.75;;;14.29;100.00
4814;BME280;15375;48.540;9.268;2023-08-06T03:05:57;96465.56;;;14.58;100.00
4814;BME280;15375;48.540;9.268;2023-08-06T03:08:23;96463.34;;;14.47;100.00
4814;BME280;15375;48.540;9.268;2023-08-06T03:10:49;96425.03;;;14.11;100.00
4814;BME280;15375;48.540;9.268;2023-08-06T03:13:15;96465.47;;;14.43;100.00
4814;BME280;15375;48.540;9.268;2023-08-06T03:15:41;96435.63;;;14.36;100.00
4814;BME280;15375;48.540;9.268;2023-08-06T03:18:06;96407.09;;;14.01;100.00
4814;BME280;15375;48.540;9.268;2023-08-06T03:20:32;96455.63;;;14.60;100.00
4814;BME280;15375;48.540;9.268;2023-08-06T03:22:58;96265.13;;;13.30;100.00
4814;BME280;15375;48.540;9.268;2023-08-06T03:25:23;96412.66;;;14.25;100.00
4814;BME280;15375;48.540;9.268;2023-08-06T03:27:49;96398.19;;;14.24;100.00
4814;BME280;15375;48.540;9.268;2023-08-06T03:30:15;96417.06;;;14.31;100.00
4814;BME280;15375;48.540;9.268;2023-08-06T03:32:40;96437.53;;;14.54;100.00
4814;BME280;15375;48.540;9.268;2023-08-06T03:35:06;96411.41;;;14.26;100.00
4814;BME280;15375;48.540;9.268;2023-08-06T03:37:31;96443.03;;;14.54;100.00
4814;BME280;15375;48.540;9.268;2023-08-06T03:39:57;96440.13;;;14.57;100.00
4814;BME280;15375;48.540;9.268;2023-08-06T03:42:22;96451.97;;;14.63;100.00
4814;BME280;15375;48.540;9.268;2023-08-06T03:44:47;96446.91;;;14.38;100.00
4814;BME280;15375;48.540;9.268;2023-08-06T03:47:13;96442.34;;;14.35;100.00
4814;BME280;15375;48.540;9.268;2023-08-06T03:49:39;96437.97;;;14.20;100.00
4814;BME280;15375;48.540;9.268;2023-08-06T03:52:05;96443.91;;;14.18;100.00
4814;BME280;15375;48.540;9.268;2023-08-06T03:54:31;96433.34;;;14.26;100.00
4814;BME280;15375;48.540;9.268;2023-08-06T03:56:56;96416.16;;;14.34;100.00
4814;BME280;15375;48.540;9.268;2023-08-06T03:59:21;96401.50;;;14.28;100.00
4814;BME280;15375;48.540;9.268;2023-08-06T04:01:47;96484.53;;;14.80;100.00
4814;BME280;15375;48.540;9.268;2023-08-06T04:04:12;96476.03;;;14.68;100.00
4814;BME280;15375;48.540;9.268;2023-08-06T04:06:38;96457.81;;;14.56;100.00
4814;BME280;15375;48.540;9.268;2023-08-06T04:09:03;96462.22;;;14.54;100.00
4814;BME280;15375;48.540;9.268;2023-08-06T04:11:29;96498.91;;;14.65;100.00
4814;BME280;15375;48.540;9.268;2023-08-06T04:13:54;96463.00;;;14.54;100.00
4814;BME280;15375;48.540;9.268;2023-08-06T04:16:21;96439.59;;;14.35;100.00
4814;BME280;15375;48.540;9.268;2023-08-06T04:18:46;96505.47;;;14.68;100.00
4814;BME280;15375;48.540;9.268;2023-08-06T04:21:12;96458.34;;;14.28;100.00
4814;BME280;15375;48.540;9.268;2023-08-06T04:23:37;96365.16;;;13.68;100.00
4814;BME280;15375;48.540;9.268;2023-08-06T04:26:03;96369.91;;;13.58;100.00
4814;BME280;15375;48.540;9.268;2023-08-06T04:28:28;96368.13;;;13.46;100.00
4814;BME280;15375;48.540;9.268;2023-08-06T04:30:54;96426.03;;;13.81;100.00
4814;BME280;15375;48.540;9.268;2023-08-06T04:33:22;96398.69;;;13.54;100.00
4814;BME280;15375;48.540;9.268;2023-08-06T04:35:53;96429.97;;;13.80;100.00
4814;BME280;15375;48.540;9.268;2023-08-06T04:38:19;96424.06;;;13.81;100.00
4814;BME280;15375;48.540;9.268;2023-08-06T04:40:44;96433.34;;;13.84;100.00
4814;BME280;15375;48.540;9.268;2023-08-06T04:43:10;96480.38;;;14.51;100.00
4814;BME280;15375;48.540;9.268;2023-08-06T04:45:35;96462.94;;;14.22;100.00
4814;BME280;15375;48.540;9.268;2023-08-06T04:48:00;96478.94;;;14.23;100.00
4814;BME280;15375;48.540;9.268;2023-08-06T04:50:26;96498.09;;;14.41;100.00
4814;BME280;15375;48.540;9.268;2023-08-06T04:52:51;96481.81;;;14.29;100.00
4814;BME280;15375;48.540;9.268;2023-08-06T04:55:17;96504.53;;;14.29;100.00
4814;BME280;15375;48.540;9.268;2023-08-06T04:57:42;96425.25;;;13.89;100.00
4814;BME280;15375;48.540;9.268;2023-08-06T05:00:08;96428.41;;;14.06;100.00
4814;BME280;15375;48.540;9.268;2023-08-06T05:02:33;96422.72;;;14.19;100.00
4814;BME280;15375;48.540;9.268;2023-08-06T05:04:59;96475.13;;;14.30;100.00
4814;BME280;15375;48.540;9.268;2023-08-06T05:07:25;96473.13;;;14.39;100.00
4814;BME280;15375;48.540;9.268;2023-08-06T05:09:50;96462.75;;;14.25;100.00
4814;BME280;15375;48.540;9.268;2023-08-06T05:12:16;96424.28;;;14.11;100.00
4814;BME280;15375;48.540;9.268;2023-08-06T05:14:42;96410.13;;;14.12;100.00
4814;BME280;15375;48.540;9.268;2023-08-06T05:17:07;96435.94;;;14.29;100.00
4814;BME280;15375;48.540;9.268;2023-08-06T05:19:33;96473.59;;;14.70;100.00
4814;BME280;15375;48.540;9.268;2023-08-06T05:21:58;96468.69;;;14.75;100.00
4814;BME280;15375;48.540;9.268;2023-08-06T05:24:23;96447.97;;;14.97;100.00
4814;BME280;15375;48.540;9.268;2023-08-06T05:26:49;96456.50;;;15.23;100.00
4814;BME280;15375;48.540;9.268;2023-08-06T05:29:16;96372.16;;;15.00;100.00
4814;BME280;15375;48.540;9.268;2023-08-06T05:31:41;96440.13;;;15.52;100.00
4814;BME280;15375;48.540;9.268;2023-08-06T05:34:07;96445.59;;;15.52;100.00
4814;BME280;15375;48.540;9.268;2023-08-06T05:36:33;96380.38;;;15.00;100.00
4814;BME280;15375;48.540;9.268;2023-08-06T05:38:58;96495.09;;;16.98;100.00
4814;BME280;15375;48.540;9.268;2023-08-06T05:41:23;96493.84;;;19.90;89.48
4814;BME280;15375;48.540;9.268;2023-08-06T05:43:49;96476.09;;;20.46;81.03
4814;BME280;15375;48.540;9.268;2023-08-06T05:46:14;96458.66;;;19.26;85.18
4814;BME280;15375;48.540;9.268;2023-08-06T05:48:40;96463.56;;;17.60;92.97
4814;BME280;15375;48.540;9.268;2023-08-06T05:51:05;96496.03;;;16.46;100.00
4814;BME280;15375;48.540;9.268;2023-08-06T05:53:31;96403.63;;;14.90;100.00
4814;BME280;15375;48.540;9.268;2023-08-06T05:55:56;96468.47;;;15.34;100.00
4814;BME280;15375;48.540;9.268;2023-08-06T05:58:22;96415.69;;;14.92;100.00
4814;BME280;15375;48.540;9.268;2023-08-06T06:00:49;96369.94;;;14.65;100.00
4814;BME280;15375;48.540;9.268;2023-08-06T06:03:14;96468.38;;;15.05;100.00
4814;BME280;15375;48.540;9.268;2023-08-06T06:05:40;96481.00;;;15.12;100.00
4814;BME280;15375;48.540;9.268;2023-08-06T06:08:05;96478.69;;;14.87;100.00
4814;BME280;15375;48.540;9.268;2023-08-06T06:10:31;96468.28;;;14.91;100.00
4814;BME280;15375;48.540;9.268;2023-08-06T06:12:56;96481.38;;;14.96;100.00
4814;BME280;15375;48.540;9.268;2023-08-06T06:15:22;96518.09;;;15.31;100.00
4814;BME280;15375;48.540;9.268;2023-08-06T06:17:47;96500.97;;;15.12;100.00
4814;BME280;15375;48.540;9.268;2023-08-06T06:20:13;96499.66;;;14.75;100.00
4814;BME280;15375;48.540;9.268;2023-08-06T06:22:38;96476.16;;;14.74;100.00
4814;BME280;15375;48.540;9.268;2023-08-06T06:25:04;96473.56;;;14.80;100.00
4814;BME280;15375;48.540;9.268;2023-08-06T06:27:29;96455.03;;;14.15;100.00
4814;BME280;15375;48.540;9.268;2023-08-06T06:29:55;96442.13;;;14.06;100.00
4814;BME280;15375;48.540;9.268;2023-08-06T06:32:21;96481.41;;;14.63;100.00
4814;BME280;15375;48.540;9.268;2023-08-06T06:34:47;96488.69;;;14.99;100.00
4814;BME280;15375;48.540;9.268;2023-08-06T06:37:12;96548.91;;;15.82;100.00
4814;BME280;15375;48.540;9.268;2023-08-06T06:39:38;96480.59;;;15.28;100.00
4814;BME280;15375;48.540;9.268;2023-08-06T06:42:04;96511.31;;;15.41;100.00
4814;BME280;15375;48.540;9.268;2023-08-06T06:44:29;96543.06;;;15.66;100.00
4814;BME280;15375;48.540;9.268;2023-08-06T06:46:55;96501.03;;;15.27;100.00
4814;BME280;15375;48.540;9.268;2023-08-06T06:49:20;96505.88;;;15.56;100.00
4814;BME280;15375;48.540;9.268;2023-08-06T06:51:46;96431.78;;;15.23;100.00
4814;BME280;15375;48.540;9.268;2023-08-06T06:54:11;96404.22;;;14.94;100.00
4814;BME280;15375;48.540;9.268;2023-08-06T06:56:37;96509.00;;;16.16;100.00
4814;BME280;15375;48.540;9.268;2023-08-06T06:59:02;96464.31;;;15.92;100.00
4814;BME280;15375;48.540;9.268;2023-08-06T07:01:28;96396.22;;;15.43;100.00
4814;BME280;15375;48.540;9.268;2023-08-06T07:03:53;96453.78;;;16.34;100.00
4814;BME280;15375;48.540;9.268;2023-08-06T07:06:18;96467.75;;;16.31;100.00
4814;BME280;15375;48.540;9.268;2023-08-06T07:08:45;96514.13;;;16.09;100.00
4814;BME280;15375;48.540;9.268;2023-08-06T07:11:10;96499.97;;;16.01;100.00
4814;BME280;15375;48.540;9.268;2023-08-06T07:13:35;96510.84;;;15.81;100.00
4814;BME280;15375;48.540;9.268;2023-08-06T07:16:01;96501.31;;;15.05;100.00
4814;BME280;15375;48.540;9.268;2023-08-06T07:18:27;96512.06;;;15.42;100.00
4814;BME280;15375;48.540;9.268;2023-08-06T07:20:53;96494.19;;;15.22;100.00
4814;BME280;15375;48.540;9.268;2023-08-06T07:23:20;96523.00;;;15.51;100.00
4814;BME280;15375;48.540;9.268;2023-08-06T07:25:46;96505.06;;;15.64;100.00
4814;BME280;15375;48.540;9.268;2023-08-06T07:28:15;96501.88;;;15.80;100.00
4814;BME280;15375;48.540;9.268;2023-08-06T07:30:42;96569.22;;;16.00;100.00
4814;BME280;15375;48.540;9.268;2023-08-06T07:33:08;96507.44;;;15.24;100.00
4814;BME280;15375;48.540;9.268;2023-08-06T07:35:34;96534.97;;;15.39;100.00
4814;BME280;15375;48.540;9.268;2023-08-06T07:37:59;96507.66;;;15.20;100.00
4814;BME280;15375;48.540;9.268;2023-08-06T07:40:25;96587.75;;;15.52;100.00
4814;BME280;15375;48.540;9.268;2023-08-06T07:42:50;96424.13;;;14.05;100.00
4814;BME280;15375;48.540;9.268;2023-08-06T07:45:16;96449.38;;;14.18;100.00
4814;BME280;15375;48.540;9.268;2023-08-06T07:47:41;96465.81;;;14.36;100.00
4814;BME280;15375;48.540;9.268;2023-08-06T07:50:08;96520.03;;;14.83;100.00
4814;BME280;15375;48.540;9.268;2023-08-06T07:52:34;96582.16;;;15.37;100.00
4814;BME280;15375;48.540;9.268;2023-08-06T07:54:59;96459.66;;;14.50;100.00
4814;BME280;15375;48.540;9.268;2023-08-06T07:57:26;96455.78;;;14.15;100.00
4814;BME280;15375;48.540;9.268;2023-08-06T07:59:52;96464.19;;;14.62;100.00
4814;BME280;15375;48.540;9.268;2023-08-06T08:02:19;96481.72;;;14.56;100.00
4814;BME280;15375;48.540;9.268;2023-08-06T08:04:45;96478.53;;;14.90;100.00
4814;BME280;15375;48.540;9.268;2023-08-06T08:07:12;96488.94;;;15.10;100.00
4814;BME280;15375;48.540;9.268;2023-08-06T08:09:37;96402.38;;;14.43;100.00
4814;BME280;15375;48.540;9.268;2023-08-06T08:12:03;96525.03;;;15.50;100.00
4814;BME280;15375;48.540;9.268;2023-08-06T08:14:28;96428.81;;;14.88;100.00
4814;BME280;15375;48.540;9.268;2023-08-06T08:16:54;96476.94;;;15.22;100.00
4814;BME280;15375;48.540;9.268;2023-08-06T08:19:20;96458.19;;;14.97;100.00
4814;BME280;15375;48.540;9.268;2023-08-06T08:21:46;96410.59;;;15.00;100.00
4814;BME280;15375;48.540;9.268;2023-08-06T08:24:11;96464.91;;;15.43;100.00
4814;BME280;15375;48.540;9.268;2023-08-06T08:26:37;96477.41;;;15.68;100.00
4814;BME280;15375;48.540;9.268;2023-08-06T08:29:02;96502.44;;;15.46;100.00
4814;BME280;15375;48.540;9.268;2023-08-06T08:31:28;96538.94;;;15.47;100.00
4814;BME280;15375;48.540;9.268;2023-08-06T08:33:54;96529.94;;;15.13;100.00
4814;BME280;15375;48.540;9.268;2023-08-06T08:36:20;96557.81;;;15.21;100.00
4814;BME280;15375;48.540;9.268;2023-08-06T08:38:45;96572.09;;;15.34;100.00
4814;BME280;15375;48.540;9.268;2023-08-06T08:41:11;96469.97;;;14.64;100.00
4814;BME280;15375;48.540;9.268;2023-08-06T08:43:37;96526.06;;;14.96;100.00
4814;BME280;15375;48.540;9.268;2023-08-06T08:46:04;96519.50;;;15.03;100.00
4814;BME280;15375;48.540;9.268;2023-08-06T08:48:31;96475.66;;;14.85;100.00
4814;BME280;15375;48.540;9.268;2023-08-06T08:50:57;96488.41;;;14.97;100.00
4814;BME280;15375;48.540;9.268;2023-08-06T08:53:23;96588.41;;;15.70;100.00
4814;BME280;15375;48.540;9.268;2023-08-06T08:55:50;96525.00;;;15.26;100.00
4814;BME280;15375;48.540;9.268;2023-08-06T08:58:15;96533.81;;;15.07;100.00
4814;BME280;15375;48.540;9.268;2023-08-06T09:00:46;96489.72;;;14.78;100.00
4814;BME280;15375;48.540;9.268;2023-08-06T09:03:13;96419.75;;;14.40;100.00
4814;BME280;15375;48.540;9.268;2023-08-06T09:05:43;96476.84;;;14.93;100.00
4814;BME280;15375;48.540;9.268;2023-08-06T09:08:11;96523.91;;;15.33;100.00
4814;BME280;15375;48.540;9.268;2023-08-06T09:10:39;96535.75;;;15.39;100.00
4814;BME280;15375;48.540;9.268;2023-08-06T09:13:04;96601.00;;;15.53;100.00
4814;BME280;15375;48.540;9.268;2023-08-06T09:15:32;96604.34;;;15.81;100.00
4814;BME280;15375;48.540;9.268;2023-08-06T09:18:09;96578.91;;;15.71;100.00
4814;BME280;15375;48.540;9.268;2023-08-06T09:20:34;96539.59;;;14.76;100.00
4814;BME280;15375;48.540;9.268;2023-08-06T09:23:07;96553.81;;;14.98;100.00
4814;BME280;15375;48.540;9.268;2023-08-06T09:25:32;96526.91;;;14.79;100.00
4814;BME280;15375;48.540;9.268;2023-08-06T09:27:58;96575.34;;;15.56;100.00
4814;BME280;15375;48.540;9.268;2023-08-06T09:30:31;96537.97;;;15.02;100.00
4814;BME280;15375;48.540;9.268;2023-08-06T09:32:57;96616.81;;;15.67;100.00
4814;BME280;15375;48.540;9.268;2023-08-06T09:35:22;96503.13;;;15.32;100.00
4814;BME280;15375;48.540;9.268;2023-08-06T09:37:48;96484.50;;;15.12;100.00
4814;BME280;15375;48.540;9.268;2023-08-06T09:42:51;96490.91;;;15.09;100.00
4814;BME280;15375;48.540;9.268;2023-08-06T09:45:17;96543.25;;;15.62;100.00
4814;BME280;15375;48.540;9.268;2023-08-06T09:47:42;96581.78;;;16.30;100.00
4814;BME280;15375;48.540;9.268;2023-08-06T09:50:18;96553.41;;;16.09;100.00
4814;BME280;15375;48.540;9.268;2023-08-06T09:52:44;96501.78;;;15.89;100.00
4814;BME280;15375;48.540;9.268;2023-08-06T09:55:11;96594.34;;;16.31;100.00
4814;BME280;15375;48.540;9.268;2023-08-06T09:57:38;96576.16;;;16.10;100.00
4814;BME280;15375;48.540;9.268;2023-08-06T10:00:07;96568.38;;;15.46;100.00
4814;BME280;15375;48.540;9.268;2023-08-06T10:02:35;96613.72;;;15.74;100.00
4814;BME280;15375;48.540;9.268;2023-08-06T10:05:02;96559.41;;;15.37;100.00
4814;BME280;15375;48.540;9.268;2023-08-06T10:07:29;96571.19;;;15.37;100.00
4814;BME280;15375;48.540;9.268;2023-08-06T10:09:55;96530.91;;;15.10;100.00
4814;BME280;15375;48.540;9.268;2023-08-06T10:12:22;96641.34;;;15.80;100.00
4814;BME280;15375;48.540;9.268;2023-08-06T10:14:51;96515.28;;;14.93;100.00
4814;BME280;15375;48.540;9.268;2023-08-06T10:17:21;96571.19;;;15.04;100.00
4814;BME280;15375;48.540;9.268;2023-08-06T10:19:48;96540.03;;;14.33;100.00
4814;BME280;15375;48.540;9.268;2023-08-06T10:22:16;96487.97;;;14.05;100.00
4814;BME280;15375;48.540;9.268;2023-08-06T10:27:11;96520.69;;;14.18;100.00
4814;BME280;15375;48.540;9.268;2023-08-06T10:29:37;96580.84;;;14.49;100.00
4814;BME280;15375;48.540;9.268;2023-08-06T10:32:03;96499.53;;;14.10;100.00
4814;BME280;15375;48.540;9.268;2023-08-06T10:34:58;96627.53;;;15.00;100.00
4814;BME280;15375;48.540;9.268;2023-08-06T10:37:36;96562.66;;;14.69;100.00
4814;BME280;15375;48.540;9.268;2023-08-06T10:40:02;96543.38;;;14.79;100.00
4814;BME280;15375;48.540;9.268;2023-08-06T10:42:29;96532.81;;;14.95;100.00
4814;BME280;15375;48.540;9.268;2023-08-06T10:45:14;96647.63;;;15.48;100.00
4814;BME280;15375;48.540;9.268;2023-08-06T10:47:41;96635.84;;;15.14;100.00
4814;BME280;15375;48.540;9.268;2023-08-06T10:50:16;96479.41;;;14.13;100.00
4814;BME280;15375;48.540;9.268;2023-08-06T10:52:46;96555.13;;;14.79;100.00
4814;BME280;15375;48.540;9.268;2023-08-06T10:55:13;96635.91;;;15.38;100.00
4814;BME280;15375;48.540;9.268;2023-08-06T10:57:39;96596.13;;;14.92;100.00
4814;BME280;15375;48.540;9.268;2023-08-06T11:00:06;96590.53;;;14.68;100.00
4814;BME280;15375;48.540;9.268;2023-08-06T11:02:35;96573.28;;;14.77;100.00
4814;BME280;15375;48.540;9.268;2023-08-06T11:05:08;96552.94;;;14.59;100.00
4814;BME280;15375;48.540;9.268;2023-08-06T11:07:35;96587.41;;;14.93;100.00
4814;BME280;15375;48.540;9.268;2023-08-06T11:10:03;96539.84;;;14.87;100.00
4814;BME280;15375;48.540;9.268;2023-08-06T11:12:29;96542.53;;;15.29;100.00
4814;BME280;15375;48.540;9.268;2023-08-06T11:14:55;96487.31;;;14.70;100.00
4814;BME280;15375;48.540;9.268;2023-08-06T11:17:21;96560.00;;;15.17;100.00
4814;BME280;15375;48.540;9.268;2023-08-06T11:19:47;96538.09;;;15.08;100.00
4814;BME280;15375;48.540;9.268;2023-08-06T11:22:12;96577.59;;;15.34;100.00
4814;BME280;15375;48.540;9.268;2023-08-06T11:24:39;96572.75;;;15.29;100.00
4814;BME280;15375;48.540;9.268;2023-08-06T11:27:15;96638.25;;;15.21;100.00
4814;BME280;15375;48.540;9.268;2023-08-06T11:29:41;96606.97;;;15.19;100.00
4814;BME280;15375;48.540;9.268;2023-08-06T11:32:08;96584.25;;;15.18;100.00
4814;BME280;15375;48.540;9.268;2023-08-06T11:34:34;96538.81;;;14.76;100.00
4814;BME280;15375;48.540;9.268;2023-08-06T11:37:00;96647.22;;;15.64;100.00
4814;BME280;15375;48.540;9.268;2023-08-06T11:39:27;96565.28;;;14.97;100.00
4814;BME280;15375;48.540;9.268;2023-08-06T11:41:53;96667.59;;;15.57;100.00
4814;BME280;15375;48.540;9.268;2023-08-06T11:44:19;96693.09;;;15.81;100.00
4814;BME280;15375;48.540;9.268;2023-08-06T11:49:17;96667.97;;;15.32;100.00
4814;BME280;15375;48.540;9.268;2023-08-06T11:51:47;96660.31;;;15.45;100.00
4814;BME280;15375;48.540;9.268;2023-08-06T11:54:12;96660.03;;;15.67;100.00
4814;BME280;15375;48.540;9.268;2023-08-06T11:56:38;96606.34;;;15.24;100.00
4814;BME280;15375;48.540;9.268;2023-08-06T11:59:03;96662.66;;;15.61;100.00
4814;BME280;15375;48.540;9.268;2023-08-06T12:01:29;96664.91;;;15.95;100.00
4814;BME280;15375;48.540;9.268;2023-08-06T12:04:00;96691.56;;;16.28;100.00
4814;BME280;15375;48.540;9.268;2023-08-06T12:06:29;96631.50;;;15.88;100.00
4814;BME280;15375;48.540;9.268;2023-08-06T12:08:54;96646.88;;;15.94;100.00
4814;BME280;15375;48.540;9.268;2023-08-06T12:11:23;96683.34;;;16.04;100.00
4814;BME280;15375;48.540;9.268;2023-08-06T12:13:52;96619.72;;;15.40;100.00
4814;BME280;15375;48.540;9.268;2023-08-06T12:16:17;96655.66;;;15.60;100.00
4814;BME280;15375;48.540;9.268;2023-08-06T12:18:44;96660.34;;;15.69;100.00
4814;BME280;15375;48.540;9.268;2023-08-06T12:21:10;96668.28;;;15.67;100.00
4814;BME280;15375;48.540;9.268;2023-08-06T12:23:35;96674.66;;;15.96;100.00
4814;BME280;15375;48.540;9.268;2023-08-06T12:26:01;96618.78;;;15.43;100.00
4814;BME280;15375;48.540;9.268;2023-08-06T12:28:27;96636.28;;;15.55;100.00
4814;BME280;15375;48.540;9.268;2023-08-06T12:30:52;96615.78;;;15.32;100.00
4814;BME280;15375;48.540;9.268;2023-08-06T12:33:20;96602.38;;;14.92;100.00
4814;BME280;15375;48.540;9.268;2023-08-06T12:35:45;96651.84;;;15.16;100.00
4814;BME280;15375;48.540;9.268;2023-08-06T12:38:11;96574.00;;;14.44;100.00
4814;BME280;15375;48.540;9.268;2023-08-06T12:40:36;96654.06;;;14.94;100.00
4814;BME280;15375;48.540;9.268;2023-08-06T12:43:02;96759.38;;;15.83;100.00
4814;BME280;15375;48.540;9.268;2023-08-06T12:45:27;96641.38;;;15.47;100.00
4814;BME280;15375;48.540;9.268;2023-08-06T12:47:53;96692.06;;;15.46;100.00
4814;BME280;15375;48.540;9.268;2023-08-06T12:50:18;96668.75;;;15.32;100.00
4814;BME280;15375;48.540;9.268;2023-08-06T12:52:44;96679.66;;;15.09;100.00
4814;BME280;15375;48.540;9.268;2023-08-06T12:55:09;96655.69;;;14.67;100.00
4814;BME280;15375;48.540;9.268;2023-08-06T12:57:35;96728.41;;;15.32;100.00
4814;BME280;15375;48.540;9.268;2023-08-06T13:00:01;96664.22;;;15.11;100.00
4814;BME280;15375;48.540;9.268;2023-08-06T13:02:27;96715.41;;;15.42;100.00
4814;BME280;15375;48.540;9.268;2023-08-06T13:04:55;96685.28;;;15.14;100.00
4814;BME280;15375;48.540;9.268;2023-08-06T13:07:20;96681.63;;;15.08;100.00
4814;BME280;15375;48.540;9.268;2023-08-06T13:09:46;96672.25;;;14.82;100.00